createdAt,value
2023-03-04T00:00:47.867Z,42.35
2023-03-04T00:03:15.709Z,42.03
2023-03-04T00:05:42.656Z,39.78
2023-03-04T00:08:09.457Z,41.17
2023-03-04T00:10:36.362Z,41.60
2023-03-04T00:13:03.182Z,41.65
2023-03-04T00:15:30.019Z,39.40
2023-03-04T00:17:56.744Z,40.65
2023-03-04T00:20:23.616Z,42.20
2023-03-04T00:22:50.363Z,43.17
2023-03-04T00:25:17.146Z,43.97
2023-03-04T00:27:43.975Z,42.00
2023-03-04T00:30:11.277Z,42.25
2023-03-04T00:32:38.044Z,42.75
2023-03-04T00:35:07.004Z,41.55
2023-03-04T00:37:33.873Z,42.33
2023-03-04T00:40:00.688Z,39.00
2023-03-04T00:42:27.580Z,40.13
2023-03-04T00:44:54.430Z,40.70
2023-03-04T00:47:21.230Z,40.83
2023-03-04T00:49:48.028Z,39.45
2023-03-04T00:52:14.812Z,40.78
2023-03-04T00:55:00.599Z,39.60
2023-03-04T00:57:41.293Z,41.42
2023-03-04T01:00:10.480Z,38.77
2023-03-04T01:02:37.338Z,39.25
2023-03-04T01:05:04.619Z,42.20
2023-03-04T01:07:31.415Z,41.42
2023-03-04T01:09:58.225Z,42.53
2023-03-04T01:12:28.330Z,43.72
2023-03-04T01:14:55.279Z,41.72
2023-03-04T01:17:22.321Z,42.13
2023-03-04T01:19:49.359Z,45.92
2023-03-04T01:22:16.856Z,42.50
2023-03-04T01:24:43.748Z,41.45
2023-03-04T01:27:10.803Z,43.58
2023-03-04T01:29:37.608Z,42.38
2023-03-04T01:32:04.917Z,39.90
2023-03-04T01:34:31.740Z,40.63
2023-03-04T01:36:58.560Z,42.13
2023-03-04T01:39:25.401Z,40.35
2023-03-04T01:41:52.191Z,41.78
2023-03-04T01:44:19.161Z,39.92
2023-03-04T01:46:52.209Z,40.72
2023-03-04T01:49:19.674Z,43.42
2023-03-04T01:51:53.410Z,44.03
2023-03-04T01:54:21.603Z,42.20
2023-03-04T01:56:50.442Z,44.08
2023-03-04T01:59:17.157Z,43.15
2023-03-04T02:01:50.091Z,42.72
2023-03-04T02:04:18.551Z,40.25
2023-03-04T02:06:46.647Z,40.97
2023-03-04T02:09:15.372Z,39.97
2023-03-04T02:11:43.165Z,43.08
2023-03-04T02:14:11.125Z,40.35
2023-03-04T02:16:38.275Z,40.50
2023-03-04T02:19:11.883Z,38.60
2023-03-04T02:21:38.649Z,37.90
2023-03-04T02:24:27.660Z,37.30
2023-03-04T02:26:54.472Z,38.95
2023-03-04T02:29:21.352Z,37.83
2023-03-04T02:31:51.005Z,38.63
2023-03-04T02:34:21.639Z,35.80
2023-03-04T02:36:50.171Z,36.17
2023-03-04T02:39:20.106Z,34.38
2023-03-04T02:41:48.650Z,34.28
2023-03-04T02:44:21.139Z,37.53
2023-03-04T02:46:49.177Z,36.15
2023-03-04T02:49:16.516Z,34.55
2023-03-04T02:51:43.524Z,36.33
2023-03-04T02:54:18.996Z,34.10
2023-03-04T02:56:54.094Z,37.35
2023-03-04T02:59:23.011Z,35.53
2023-03-04T03:01:50.882Z,36.58
2023-03-04T03:04:18.821Z,34.05
2023-03-04T03:06:46.008Z,38.30
2023-03-04T03:09:12.841Z,34.03
2023-03-04T03:11:39.661Z,36.40
2023-03-04T03:14:06.844Z,37.08
2023-03-04T03:16:34.402Z,34.13
2023-03-04T03:19:01.318Z,35.53
2023-03-04T03:21:28.098Z,35.63
2023-03-04T03:23:54.931Z,34.17
2023-03-04T03:26:21.787Z,34.92
2023-03-04T03:28:48.631Z,34.95
2023-03-04T03:31:15.598Z,34.30
2023-03-04T03:33:42.365Z,33.72
2023-03-04T03:36:09.443Z,34.72
2023-03-04T03:38:36.559Z,33.03
2023-03-04T03:41:03.370Z,34.38
2023-03-04T03:43:30.205Z,34.15
2023-03-04T03:45:57.024Z,33.47
2023-03-04T03:48:23.804Z,33.85
2023-03-04T03:50:50.683Z,32.35
2023-03-04T03:53:17.401Z,33.22
2023-03-04T03:55:44.143Z,33.30
2023-03-04T03:58:10.910Z,32.88
2023-03-04T04:00:37.704Z,31.30
2023-03-04T04:03:04.612Z,34.40
2023-03-04T04:05:32.000Z,34.40
2023-03-04T04:07:58.802Z,33.22
2023-03-04T04:10:25.560Z,33.88
2023-03-04T04:12:52.504Z,32.28
2023-03-04T04:15:19.295Z,31.33
2023-03-04T04:17:46.077Z,33.03
2023-03-04T04:20:12.934Z,30.00
2023-03-04T04:22:39.694Z,30.90
2023-03-04T04:25:08.913Z,30.60
2023-03-04T04:27:35.757Z,31.15
2023-03-04T04:30:03.732Z,32.20
2023-03-04T04:32:30.686Z,29.52
2023-03-04T04:34:57.514Z,31.67
2023-03-04T04:37:24.481Z,31.20
2023-03-04T04:39:51.876Z,30.13
2023-03-04T04:42:18.643Z,31.67
2023-03-04T04:44:45.441Z,30.35
2023-03-04T04:47:12.289Z,30.15
2023-03-04T04:49:39.046Z,30.30
2023-03-04T04:52:06.014Z,31.00
2023-03-04T04:54:32.835Z,30.10
2023-03-04T04:56:59.582Z,31.52
2023-03-04T04:59:26.302Z,31.33
2023-03-04T05:01:53.125Z,29.42
2023-03-04T05:04:19.886Z,33.67
2023-03-04T05:06:46.687Z,32.03
2023-03-04T05:09:13.538Z,31.42
2023-03-04T05:11:40.334Z,33.35
2023-03-04T05:14:07.063Z,30.65
2023-03-04T05:16:33.844Z,32.13
2023-03-04T05:19:00.597Z,34.72
2023-03-04T05:21:27.429Z,31.75
2023-03-04T05:23:54.292Z,32.28
2023-03-04T05:26:21.159Z,32.35
2023-03-04T05:28:48.079Z,32.03
2023-03-04T05:31:14.996Z,30.33
2023-03-04T05:33:41.808Z,32.33
2023-03-04T05:36:08.982Z,32.97
2023-03-04T05:38:36.331Z,31.00
2023-03-04T05:41:06.822Z,31.67
2023-03-04T05:43:35.984Z,33.88
2023-03-04T05:46:04.882Z,29.75
2023-03-04T05:48:31.718Z,32.60
2023-03-04T05:51:00.584Z,33.05
2023-03-04T05:53:28.544Z,32.97
2023-03-04T05:55:55.353Z,32.92
2023-03-04T05:58:22.537Z,33.08
2023-03-04T06:00:49.355Z,31.90
2023-03-04T06:03:21.812Z,32.83
2023-03-04T06:05:48.909Z,30.48
2023-03-04T06:08:15.824Z,35.08
2023-03-04T06:10:43.017Z,31.05
2023-03-04T06:13:10.589Z,33.78
2023-03-04T06:15:38.461Z,31.90
2023-03-04T06:18:05.693Z,31.73
2023-03-04T06:20:32.469Z,36.15
2023-03-04T06:22:59.262Z,32.90
2023-03-04T06:25:26.971Z,34.45
2023-03-04T06:27:55.251Z,33.65
2023-03-04T06:30:22.613Z,36.53
2023-03-04T06:32:49.418Z,33.15
2023-03-04T06:35:16.880Z,34.72
2023-03-04T06:37:44.309Z,34.30
2023-03-04T06:40:12.203Z,35.72
2023-03-04T06:42:40.200Z,37.47
2023-03-04T06:45:07.755Z,36.10
2023-03-04T06:47:34.570Z,35.40
2023-03-04T06:50:01.388Z,35.97
2023-03-04T06:52:28.146Z,34.00
2023-03-04T06:54:54.944Z,36.08
2023-03-04T06:57:21.737Z,36.10
2023-03-04T06:59:48.465Z,36.10
2023-03-04T07:02:15.233Z,37.25
2023-03-04T07:04:42.044Z,38.50
2023-03-04T07:07:08.801Z,35.33
2023-03-04T07:09:35.516Z,36.15
2023-03-04T07:12:02.403Z,36.80
2023-03-04T07:14:29.163Z,36.13
2023-03-04T07:16:56.010Z,37.33
2023-03-04T07:19:22.806Z,38.65
2023-03-04T07:21:49.908Z,37.00
2023-03-04T07:24:16.899Z,38.95
2023-03-04T07:26:43.701Z,37.58
2023-03-04T07:29:10.466Z,39.47
2023-03-04T07:31:37.393Z,42.63
2023-03-04T07:34:07.219Z,46.28
2023-03-04T07:36:36.331Z,44.53
2023-03-04T07:39:04.777Z,45.55
2023-03-04T07:41:32.563Z,45.22
2023-03-04T07:43:59.609Z,45.90
2023-03-04T07:46:26.492Z,44.70
2023-03-04T07:49:16.499Z,44.83
2023-03-04T07:52:15.393Z,48.17
2023-03-04T08:02:12.436Z,47.10
2023-03-04T08:04:41.580Z,48.67
2023-03-04T08:07:08.330Z,51.78
2023-03-04T08:09:35.064Z,49.35
2023-03-04T08:12:01.899Z,49.60
2023-03-04T08:14:28.660Z,48.17
2023-03-04T08:16:55.401Z,45.72
2023-03-04T08:19:25.002Z,49.75
2023-03-04T08:21:52.656Z,46.20
2023-03-04T08:24:19.393Z,45.50
2023-03-04T08:26:49.030Z,44.33
2023-03-04T08:29:20.542Z,44.17
2023-03-04T08:31:49.211Z,40.78
2023-03-04T08:34:16.826Z,41.00
2023-03-04T08:36:44.005Z,41.63
2023-03-04T08:39:13.574Z,38.65
2023-03-04T08:41:40.949Z,33.63
2023-03-04T08:44:10.290Z,33.10
2023-03-04T08:46:38.703Z,32.08
2023-03-04T08:49:06.012Z,29.40
2023-03-04T08:51:33.036Z,30.75
2023-03-04T08:53:59.781Z,28.98
2023-03-04T08:56:26.532Z,29.13
2023-03-04T08:58:53.317Z,30.35
2023-03-04T09:01:20.544Z,29.75
2023-03-04T09:03:47.362Z,28.67
2023-03-04T09:06:16.627Z,27.83
2023-03-04T09:08:44.440Z,28.35
2023-03-04T09:11:12.374Z,29.05
2023-03-04T09:13:39.266Z,28.63
2023-03-04T09:16:11.622Z,30.63
2023-03-04T09:18:39.785Z,28.40
2023-03-04T09:21:08.392Z,29.63
2023-03-04T09:23:36.066Z,27.77
2023-03-04T09:26:21.567Z,26.02
2023-03-04T09:28:53.143Z,24.85
2023-03-04T09:31:21.044Z,26.30
2023-03-04T09:33:47.896Z,26.10
2023-03-04T09:36:15.621Z,25.15
2023-03-04T09:39:05.437Z,23.30
2023-03-04T09:41:48.236Z,23.80
2023-03-04T09:44:28.816Z,23.77
2023-03-04T09:47:04.945Z,26.27
2023-03-04T09:49:33.609Z,21.23
2023-03-04T09:52:15.333Z,24.23
2023-03-04T09:54:51.736Z,24.95
2023-03-04T09:57:24.647Z,24.35
2023-03-04T10:00:19.751Z,23.88
2023-03-04T10:03:05.271Z,24.20
2023-03-04T10:05:39.710Z,21.48
2023-03-04T10:08:35.903Z,23.25
2023-03-04T10:11:06.481Z,23.23
2023-03-04T10:13:43.144Z,23.85
2023-03-04T10:16:44.569Z,21.15
2023-03-04T10:19:14.404Z,21.45
2023-03-04T10:21:51.624Z,21.70
2023-03-04T10:24:22.740Z,21.83
2023-03-04T10:26:53.850Z,22.55
2023-03-04T10:29:24.502Z,21.30
2023-03-04T10:31:51.953Z,24.30
2023-03-04T10:34:19.566Z,22.08
2023-03-04T10:36:50.403Z,25.42
2023-03-04T10:39:22.858Z,23.67
2023-03-04T10:42:26.802Z,23.05
2023-03-04T10:45:01.334Z,21.08
2023-03-04T10:47:31.429Z,20.60
2023-03-04T10:50:05.617Z,19.52
2023-03-04T10:52:46.202Z,20.45
2023-03-04T10:55:20.849Z,19.20
2023-03-04T10:58:06.540Z,20.13
2023-03-04T11:00:35.099Z,20.50
2023-03-04T11:03:27.876Z,20.23
2023-03-04T11:06:07.975Z,19.00
2023-03-04T11:08:34.838Z,18.70
2023-03-04T11:11:01.904Z,18.80
2023-03-04T11:13:30.195Z,20.05
2023-03-04T11:16:03.216Z,17.08
2023-03-04T11:18:48.265Z,18.70
2023-03-04T11:21:19.160Z,18.83
2023-03-04T11:23:51.836Z,17.73
2023-03-04T11:26:51.173Z,18.35
2023-03-04T11:29:23.285Z,17.77
2023-03-04T11:34:47.705Z,16.83
2023-03-04T11:37:33.385Z,17.83
2023-03-04T11:40:19.048Z,19.15
2023-03-04T11:42:52.777Z,18.30
2023-03-04T11:45:59.796Z,18.35
2023-03-04T11:48:36.829Z,18.75
2023-03-04T11:51:19.402Z,18.42
2023-03-04T11:54:33.710Z,18.80
2023-03-04T11:57:07.606Z,19.05
2023-03-04T11:59:58.760Z,19.70
2023-03-04T12:02:38.080Z,19.38
2023-03-04T12:05:37.776Z,18.15
2023-03-04T12:08:04.557Z,15.82
2023-03-04T12:10:50.744Z,17.85
2023-03-04T12:13:41.949Z,16.33
2023-03-04T12:16:37.539Z,15.40
2023-03-04T12:19:22.653Z,16.20
2023-03-04T12:22:13.217Z,16.73
2023-03-04T12:25:04.614Z,16.33
2023-03-04T12:28:15.223Z,16.23
2023-03-04T12:31:19.033Z,14.15
2023-03-04T12:34:27.952Z,15.27
2023-03-04T12:37:24.048Z,15.45
2023-03-04T12:40:09.997Z,14.35
2023-03-04T12:43:00.426Z,14.20
2023-03-04T12:45:49.842Z,15.45
2023-03-04T12:48:39.313Z,15.23
2023-03-04T12:51:26.750Z,14.75
2023-03-04T12:54:02.512Z,14.57
2023-03-04T12:56:48.869Z,14.75
2023-03-04T12:59:23.757Z,14.50
2023-03-04T13:02:10.824Z,14.40
2023-03-04T13:05:01.300Z,14.68
2023-03-04T13:07:55.013Z,14.82
2023-03-04T13:10:23.560Z,13.45
2023-03-04T13:12:54.528Z,15.00
2023-03-04T13:15:21.295Z,13.55
2023-03-04T13:17:56.976Z,13.80
2023-03-04T13:20:38.336Z,14.02
2023-03-04T13:23:26.175Z,14.00
2023-03-04T13:25:55.757Z,14.07
2023-03-04T13:28:23.708Z,12.85
2023-03-04T13:30:57.033Z,15.30
2023-03-04T13:33:23.869Z,15.30
2023-03-04T13:35:58.404Z,14.90
2023-03-04T13:38:28.121Z,13.13
2023-03-04T13:41:19.522Z,13.38
2023-03-04T13:44:06.209Z,13.88
2023-03-04T13:46:43.693Z,14.07
2023-03-04T13:49:21.986Z,16.50
2023-03-04T13:51:49.037Z,14.48
2023-03-04T13:54:15.757Z,13.23
2023-03-04T13:57:00.863Z,13.80
2023-03-04T13:59:33.765Z,13.50
2023-03-04T14:02:02.695Z,13.07
2023-03-04T14:04:31.294Z,13.27
2023-03-04T14:07:00.080Z,13.20
2023-03-04T14:09:35.996Z,13.82
2023-03-04T14:12:11.499Z,11.88
2023-03-04T14:14:44.638Z,12.80
2023-03-04T14:17:20.356Z,13.57
2023-03-04T14:19:48.827Z,14.07
2023-03-04T14:22:23.689Z,12.98
2023-03-04T14:25:20.217Z,14.07
2023-03-04T14:27:47.737Z,14.27
2023-03-04T14:30:40.724Z,13.25
2023-03-04T14:33:14.116Z,12.70
2023-03-04T14:35:50.059Z,13.70
2023-03-04T14:38:38.318Z,12.85
2023-03-04T14:41:20.996Z,13.70
2023-03-04T14:43:59.397Z,14.68
2023-03-04T14:46:40.293Z,13.18
2023-03-04T14:49:13.780Z,13.10
2023-03-04T14:51:45.974Z,13.68
2023-03-04T14:56:58.370Z,13.00
2023-03-04T14:59:35.756Z,12.68
2023-03-04T15:02:24.632Z,13.38
2023-03-04T15:04:51.607Z,13.30
2023-03-04T15:07:33.597Z,12.70
2023-03-04T15:10:02.623Z,14.35
2023-03-04T15:12:31.965Z,13.85
2023-03-04T15:15:01.581Z,13.18
2023-03-04T15:17:37.575Z,12.60
2023-03-04T15:20:23.444Z,13.48
2023-03-04T15:22:53.384Z,14.02
2023-03-04T15:25:20.760Z,13.43
2023-03-04T15:27:48.928Z,13.00
2023-03-04T15:30:34.432Z,13.13
2023-03-04T15:33:01.493Z,15.52
2023-03-04T15:35:31.893Z,13.93
2023-03-04T15:37:59.589Z,14.00
2023-03-04T15:40:36.060Z,13.77
2023-03-04T15:43:05.407Z,14.38
2023-03-04T15:45:38.432Z,14.07
2023-03-04T15:48:23.116Z,14.32
2023-03-04T15:50:56.278Z,45.83
2023-03-04T15:53:33.524Z,22.95
2023-03-04T15:56:01.839Z,28.88
2023-03-04T15:58:29.421Z,29.95
2023-03-04T16:00:56.320Z,16.00
2023-03-04T16:03:23.140Z,15.55
2023-03-04T16:05:52.242Z,17.05
2023-03-04T16:08:21.296Z,14.25
2023-03-04T16:10:48.619Z,14.23
2023-03-04T16:13:20.635Z,14.93
2023-03-04T16:15:48.067Z,15.32
2023-03-04T16:18:15.994Z,14.25
2023-03-04T16:20:46.056Z,14.35
2023-03-04T16:23:20.317Z,15.75
2023-03-04T16:25:49.554Z,14.98
2023-03-04T16:28:16.985Z,12.43
2023-03-04T16:30:44.054Z,16.48
2023-03-04T16:33:11.566Z,14.18
2023-03-04T16:35:39.572Z,16.85
2023-03-04T16:38:21.915Z,14.80
2023-03-04T16:40:49.575Z,16.42
2023-03-04T16:43:16.398Z,14.50
2023-03-04T16:45:43.660Z,15.73
2023-03-04T16:48:10.677Z,14.82
2023-03-04T16:50:38.808Z,15.75
2023-03-04T16:53:14.084Z,15.57
2023-03-04T16:55:40.821Z,18.75
2023-03-04T16:58:10.147Z,27.35
2023-03-04T17:00:36.927Z,20.58
2023-03-04T17:03:04.447Z,16.17
2023-03-04T17:05:33.656Z,15.07
2023-03-04T17:08:00.468Z,17.65
2023-03-04T17:10:27.620Z,16.55
2023-03-04T17:12:54.589Z,14.73
2023-03-04T17:15:21.670Z,17.00
2023-03-04T17:17:48.482Z,15.68
2023-03-04T17:20:18.758Z,20.23
2023-03-04T17:22:46.118Z,18.48
2023-03-04T17:25:14.026Z,15.73
2023-03-04T17:27:41.963Z,17.08
2023-03-04T17:30:11.655Z,16.80
2023-03-04T17:32:39.593Z,17.33
2023-03-04T17:35:10.595Z,17.10
2023-03-04T17:37:38.077Z,16.52
2023-03-04T17:40:06.868Z,17.10
2023-03-04T17:42:33.639Z,16.20
2023-03-04T17:45:00.480Z,18.17
2023-03-04T17:47:30.247Z,17.15
2023-03-04T17:49:56.948Z,17.08
2023-03-04T17:52:23.702Z,17.17
2023-03-04T17:54:50.490Z,16.65
2023-03-04T17:57:17.492Z,16.63
2023-03-04T17:59:44.206Z,17.90
2023-03-04T18:02:15.973Z,17.20
2023-03-04T18:04:45.197Z,16.30
2023-03-04T18:07:11.992Z,16.05
2023-03-04T18:09:39.822Z,16.83
2023-03-04T18:12:06.887Z,17.58
2023-03-04T18:14:33.634Z,16.95
2023-03-04T18:17:00.446Z,16.48
2023-03-04T18:19:27.217Z,17.15
2023-03-04T18:21:54.043Z,18.45
2023-03-04T18:24:20.753Z,16.67
2023-03-04T18:26:48.830Z,17.55
2023-03-04T18:29:17.789Z,17.50
2023-03-04T18:31:44.643Z,17.27
2023-03-04T18:34:11.503Z,19.75
2023-03-04T18:36:38.430Z,19.10
2023-03-04T18:39:07.374Z,20.35
2023-03-04T18:41:37.158Z,17.88
2023-03-04T18:44:05.007Z,18.58
2023-03-04T18:46:52.223Z,19.27
2023-03-04T18:49:19.940Z,17.30
2023-03-04T18:51:46.726Z,19.42
2023-03-04T18:54:13.658Z,31.13
2023-03-04T18:56:47.806Z,19.95
2023-03-04T18:59:25.385Z,19.15
2023-03-04T19:01:54.159Z,19.17
2023-03-04T19:04:23.439Z,20.83
2023-03-04T19:06:50.456Z,21.17
2023-03-04T19:09:17.180Z,19.65
2023-03-04T19:11:44.018Z,18.77
2023-03-04T19:14:11.824Z,21.77
2023-03-04T19:16:39.933Z,20.45
2023-03-04T19:19:06.743Z,22.42
2023-03-04T19:21:38.381Z,19.63
2023-03-04T19:24:09.014Z,14.88
2023-03-04T19:26:36.092Z,19.60
2023-03-04T19:29:03.088Z,18.55
2023-03-04T19:31:29.964Z,19.17
2023-03-04T19:33:56.707Z,18.88
2023-03-04T19:36:25.451Z,18.65
2023-03-04T19:38:52.414Z,18.63
2023-03-04T19:41:19.203Z,19.60
2023-03-04T19:43:46.132Z,20.02
2023-03-04T19:46:13.733Z,18.25
2023-03-04T19:48:41.142Z,20.70
2023-03-04T19:51:20.056Z,19.35
2023-03-04T19:53:47.014Z,19.85
2023-03-04T19:56:14.374Z,21.20
2023-03-04T19:58:41.151Z,21.30
2023-03-04T20:01:18.776Z,22.10
2023-03-04T20:03:45.636Z,19.17
2023-03-04T20:06:12.397Z,19.85
2023-03-04T20:08:39.116Z,20.45
2023-03-04T20:11:12.824Z,18.60
2023-03-04T20:13:39.670Z,20.30
2023-03-04T20:16:10.864Z,21.38
2023-03-04T20:18:38.813Z,20.10
2023-03-04T20:21:07.073Z,21.52
2023-03-04T20:23:34.390Z,19.33
2023-03-04T20:26:01.754Z,18.77
2023-03-04T20:28:28.893Z,20.20
2023-03-04T20:31:26.207Z,20.55
2023-03-04T20:33:54.727Z,21.50
2023-03-04T20:36:23.857Z,20.25
2023-03-04T20:38:57.970Z,21.52
2023-03-04T20:41:28.382Z,21.65
2023-03-04T20:43:55.151Z,20.75
2023-03-04T20:46:40.002Z,20.25
2023-03-04T20:49:22.235Z,21.48
2023-03-04T20:51:50.165Z,20.50
2023-03-04T20:54:17.044Z,20.85
2023-03-04T20:56:43.911Z,19.05
2023-03-04T20:59:12.291Z,20.85
2023-03-04T21:01:41.881Z,18.95
2023-03-04T21:04:09.432Z,20.27
2023-03-04T21:06:38.542Z,22.13
2023-03-04T21:09:15.507Z,24.67
2023-03-04T21:11:43.545Z,21.50
2023-03-04T21:14:13.326Z,19.92
2023-03-04T21:16:40.576Z,22.40
2023-03-04T21:19:07.769Z,21.10
2023-03-04T21:21:34.578Z,22.00
2023-03-04T21:24:01.425Z,22.67
2023-03-04T21:26:28.132Z,22.13
2023-03-04T21:28:54.946Z,23.10
2023-03-04T21:31:28.688Z,22.42
2023-03-04T21:34:00.172Z,24.67
2023-03-04T21:36:27.101Z,23.25
2023-03-04T21:38:54.069Z,23.55
2023-03-04T21:41:22.931Z,27.73
2023-03-04T21:43:51.044Z,25.77
2023-03-04T21:46:19.082Z,24.20
2023-03-04T21:48:47.848Z,26.60
2023-03-04T21:51:16.341Z,28.55
2023-03-04T21:53:44.087Z,21.33
2023-03-04T21:56:12.709Z,20.17
2023-03-04T21:58:42.205Z,21.02
2023-03-04T22:01:18.461Z,19.17
2023-03-04T22:03:48.819Z,22.33
2023-03-04T22:06:17.066Z,20.38
2023-03-04T22:08:43.858Z,19.88
2023-03-04T22:11:11.891Z,21.58
2023-03-04T22:13:38.730Z,20.45
2023-03-04T22:16:06.166Z,22.73
2023-03-04T22:18:33.497Z,22.50
2023-03-04T22:21:11.362Z,22.48
2023-03-04T22:23:38.402Z,23.80
2023-03-04T22:26:11.775Z,21.92
2023-03-04T22:28:39.433Z,22.33
2023-03-04T22:31:15.542Z,22.70
2023-03-04T22:33:42.458Z,25.17
2023-03-04T22:36:09.244Z,24.45
2023-03-04T22:38:39.152Z,23.27
2023-03-04T22:41:11.919Z,25.30
2023-03-04T22:43:38.694Z,26.30
2023-03-04T22:46:21.193Z,24.75
2023-03-04T22:48:49.665Z,25.55
2023-03-04T22:51:17.062Z,24.67
2023-03-04T22:53:44.034Z,24.52
2023-03-04T22:56:12.938Z,24.88
2023-03-04T22:58:40.816Z,23.48
2023-03-04T23:01:08.261Z,24.55
2023-03-04T23:03:35.949Z,24.85
2023-03-04T23:06:17.689Z,27.75
2023-03-04T23:08:46.309Z,25.38
2023-03-04T23:11:35.364Z,25.80
2023-03-04T23:14:06.433Z,25.08
2023-03-04T23:16:37.109Z,24.05
2023-03-04T23:19:05.782Z,26.55
2023-03-04T23:21:33.965Z,27.50
2023-03-04T23:24:02.638Z,25.33
2023-03-04T23:26:32.356Z,24.88
2023-03-04T23:29:01.604Z,26.73
2023-03-04T23:31:29.728Z,26.13
2023-03-04T23:33:57.355Z,26.42
2023-03-04T23:36:26.729Z,27.40
2023-03-04T23:38:53.916Z,26.23
2023-03-04T23:41:23.504Z,27.50
2023-03-04T23:43:53.605Z,27.85
2023-03-04T23:46:20.790Z,26.08
2023-03-04T23:48:48.351Z,24.92
2023-03-04T23:51:18.201Z,26.30
2023-03-04T23:53:45.831Z,25.58
2023-03-04T23:56:21.490Z,26.40
2023-03-04T23:58:48.816Z,25.13
